createdAt,value
2018-01-20T00:01:39.063Z,12.85
2018-01-20T00:04:06.778Z,6.12
2018-01-20T00:06:34.353Z,8.20
2018-01-20T00:09:01.909Z,12.32
2018-01-20T00:11:41.235Z,11.40
2018-01-20T00:14:08.786Z,7.25
2018-01-20T00:16:36.357Z,7.22
2018-01-20T00:19:03.942Z,9.23
2018-01-20T00:21:32.423Z,8.20
2018-01-20T00:23:59.989Z,9.48
2018-01-20T00:26:33.276Z,7.18
2018-01-20T00:29:00.873Z,12.80
2018-01-20T00:31:28.442Z,13.45
2018-01-20T00:33:56.004Z,6.03
2018-01-20T00:36:23.777Z,7.40
2018-01-20T00:38:52.085Z,7.72
2018-01-20T00:41:19.629Z,4.75
2018-01-20T00:43:48.048Z,9.15
2018-01-20T00:46:15.630Z,5.75
2018-01-20T00:48:43.185Z,6.47
2018-01-20T00:51:10.763Z,4.85
2018-01-20T00:53:38.366Z,11.98
2018-01-20T00:56:06.666Z,7.78
2018-01-20T00:58:34.277Z,8.30
2018-01-20T01:01:01.831Z,7.32
2018-01-20T01:03:29.396Z,7.37
2018-01-20T01:05:56.917Z,9.68
2018-01-20T01:08:24.516Z,6.28
2018-01-20T01:10:52.144Z,6.47
2018-01-20T01:13:19.700Z,7.20
2018-01-20T01:15:47.310Z,11.07
2018-01-20T01:18:14.855Z,8.35
2018-01-20T01:20:42.421Z,5.20
2018-01-20T01:23:10.741Z,6.43
2018-01-20T01:25:38.320Z,10.60
2018-01-20T01:28:05.924Z,8.68
2018-01-20T01:30:33.478Z,8.60
2018-01-20T01:33:01.028Z,6.47
2018-01-20T01:35:28.598Z,8.13
2018-01-20T01:37:56.227Z,5.87
2018-01-20T01:40:24.562Z,9.10
2018-01-20T01:42:52.193Z,4.47
2018-01-20T01:45:19.790Z,6.95
2018-01-20T01:47:47.320Z,11.05
2018-01-20T01:50:14.869Z,9.48
2018-01-20T01:52:42.429Z,7.72
2018-01-20T01:55:10.034Z,8.75
2018-01-20T01:57:37.596Z,6.62
2018-01-20T02:00:05.141Z,4.32
2018-01-20T02:02:32.714Z,3.87
2018-01-20T02:05:01.073Z,7.70
2018-01-20T02:07:28.628Z,7.53
2018-01-20T02:09:56.187Z,10.63
2018-01-20T02:12:23.744Z,5.47
2018-01-20T02:14:51.297Z,6.40
2018-01-20T02:17:18.873Z,3.40
2018-01-20T02:19:46.413Z,8.27
2018-01-20T02:22:13.983Z,5.45
2018-01-20T02:24:41.586Z,3.95
2018-01-20T02:27:09.129Z,3.78
2018-01-20T02:29:36.793Z,4.22
2018-01-20T02:32:04.352Z,7.40
2018-01-20T02:34:31.900Z,3.97
2018-01-20T02:36:59.455Z,4.05
2018-01-20T02:39:27.000Z,4.22
2018-01-20T02:41:54.557Z,6.12
2018-01-20T02:44:22.111Z,2.58
2018-01-20T02:46:49.672Z,9.05
2018-01-20T02:49:17.230Z,4.55
2018-01-20T02:51:44.783Z,5.70
2018-01-20T02:54:12.363Z,3.70
2018-01-20T02:56:39.918Z,2.80
2018-01-20T02:59:07.477Z,4.55
2018-01-20T03:01:35.045Z,3.03
2018-01-20T03:04:02.925Z,5.43
2018-01-20T03:06:30.495Z,6.05
2018-01-20T03:08:58.041Z,3.20
2018-01-20T03:11:25.676Z,4.07
2018-01-20T03:13:53.249Z,2.60
2018-01-20T03:16:20.817Z,4.65
2018-01-20T03:18:48.365Z,5.95
2018-01-20T03:21:16.033Z,6.90
2018-01-20T03:23:43.597Z,6.25
2018-01-20T03:26:11.130Z,6.62
2018-01-20T03:28:38.701Z,7.43
2018-01-20T03:31:06.251Z,5.97
2018-01-20T03:33:33.799Z,9.10
2018-01-20T03:36:02.113Z,5.65
2018-01-20T03:38:29.661Z,6.57
2018-01-20T03:40:57.213Z,7.53
2018-01-20T03:43:24.788Z,8.20
2018-01-20T03:45:52.337Z,8.00
2018-01-20T03:48:19.891Z,5.85
2018-01-20T03:50:47.432Z,4.22
2018-01-20T03:53:15.757Z,11.63
2018-01-20T03:55:43.349Z,5.32
2018-01-20T03:58:10.922Z,15.15
2018-01-20T04:00:39.445Z,5.90
2018-01-20T04:03:06.996Z,6.60
2018-01-20T04:05:34.542Z,9.15
2018-01-20T04:08:02.899Z,9.55
2018-01-20T04:10:31.214Z,6.15
2018-01-20T04:12:58.763Z,5.93
2018-01-20T04:15:27.090Z,9.65
2018-01-20T04:17:55.184Z,5.78
2018-01-20T04:20:22.729Z,10.02
2018-01-20T04:22:50.296Z,8.27
2018-01-20T04:25:17.882Z,8.48
2018-01-20T04:27:45.436Z,5.55
2018-01-20T04:30:12.995Z,9.00
2018-01-20T04:32:40.541Z,4.90
2018-01-20T04:35:08.252Z,6.45
2018-01-20T04:37:36.569Z,8.13
2018-01-20T04:40:04.133Z,6.82
2018-01-20T04:42:31.689Z,11.02
2018-01-20T04:44:59.250Z,8.02
2018-01-20T04:47:26.957Z,7.87
2018-01-20T04:49:54.508Z,7.50
2018-01-20T04:52:22.078Z,6.82
2018-01-20T04:54:49.613Z,5.57
2018-01-20T04:57:17.178Z,10.18
2018-01-20T04:59:44.719Z,7.35
2018-01-20T05:02:12.272Z,6.40
2018-01-20T05:04:39.830Z,11.88
2018-01-20T05:07:07.398Z,6.32
2018-01-20T05:09:34.931Z,6.87
2018-01-20T05:12:02.473Z,10.60
2018-01-20T05:14:30.782Z,8.02
2018-01-20T05:16:58.357Z,10.48
2018-01-20T05:19:25.913Z,6.95
2018-01-20T05:21:53.456Z,6.87
2018-01-20T05:24:21.021Z,11.48
2018-01-20T05:26:48.651Z,8.10
2018-01-20T05:29:16.193Z,8.48
2018-01-20T05:31:43.789Z,6.72
2018-01-20T05:34:12.103Z,7.43
2018-01-20T05:36:39.649Z,5.20
2018-01-20T05:39:07.193Z,7.35
2018-01-20T05:41:35.520Z,9.27
2018-01-20T05:44:03.141Z,11.77
2018-01-20T05:46:30.980Z,11.75
2018-01-20T05:48:58.962Z,10.77
2018-01-20T05:51:27.357Z,6.90
2018-01-20T05:53:55.681Z,9.40
2018-01-20T05:56:23.246Z,9.45
2018-01-20T05:58:50.801Z,5.60
2018-01-20T06:01:18.367Z,7.20
2018-01-20T06:03:45.909Z,6.97
2018-01-20T06:06:13.575Z,15.30
2018-01-20T06:08:41.117Z,11.48
2018-01-20T06:11:08.689Z,11.43
2018-01-20T06:13:36.259Z,9.15
2018-01-20T06:16:03.825Z,4.82
2018-01-20T06:18:31.406Z,10.98
2018-01-20T06:20:58.981Z,7.37
2018-01-20T06:23:26.560Z,9.02
2018-01-20T06:25:54.114Z,6.45
2018-01-20T06:28:21.657Z,8.27
2018-01-20T06:30:49.200Z,6.30
2018-01-20T06:33:16.776Z,6.12
2018-01-20T06:35:44.338Z,5.95
2018-01-20T06:38:11.901Z,9.35
2018-01-20T06:40:39.469Z,7.95
2018-01-20T06:43:07.054Z,7.00
2018-01-20T06:45:35.366Z,8.30
2018-01-20T06:48:02.928Z,7.30
2018-01-20T06:50:30.508Z,4.50
2018-01-20T06:52:58.256Z,5.20
2018-01-20T06:55:25.846Z,5.82
2018-01-20T06:57:53.404Z,10.07
2018-01-20T07:00:20.962Z,7.70
2018-01-20T07:02:48.580Z,6.90
2018-01-20T07:05:16.144Z,3.33
2018-01-20T07:07:43.681Z,4.75
2018-01-20T07:10:11.452Z,5.25
2018-01-20T07:12:39.052Z,7.82
2018-01-20T07:15:06.780Z,7.35
2018-01-20T07:17:34.350Z,4.37
2018-01-20T07:20:02.664Z,5.75
2018-01-20T07:22:30.229Z,4.50
2018-01-20T07:24:57.782Z,12.07
2018-01-20T07:27:25.341Z,5.20
2018-01-20T07:29:52.883Z,6.47
2018-01-20T07:32:20.452Z,7.20
2018-01-20T07:34:47.998Z,4.07
2018-01-20T07:37:16.372Z,7.65
2018-01-20T07:39:44.671Z,4.95
2018-01-20T07:42:12.282Z,8.70
2018-01-20T07:44:39.833Z,8.00
2018-01-20T07:47:07.382Z,7.12
2018-01-20T07:49:34.940Z,5.72
2018-01-20T07:52:02.498Z,5.45
2018-01-20T07:54:30.041Z,6.85
2018-01-20T07:56:57.598Z,6.35
2018-01-20T07:59:25.172Z,4.82
2018-01-20T08:01:52.722Z,7.45
2018-01-20T08:04:20.828Z,6.07
2018-01-20T08:06:48.368Z,3.97
2018-01-20T08:09:16.107Z,5.60
2018-01-20T08:11:44.442Z,12.93
2018-01-20T08:14:11.990Z,5.07
2018-01-20T08:16:39.543Z,6.57
2018-01-20T08:19:07.136Z,7.85
2018-01-20T08:21:35.469Z,8.75
2018-01-20T08:24:03.043Z,5.75
2018-01-20T08:26:30.814Z,5.53
2018-01-20T08:28:58.373Z,8.77
2018-01-20T08:31:25.926Z,5.07
2018-01-20T08:33:53.463Z,3.60
2018-01-20T08:36:21.784Z,7.87
2018-01-20T08:38:49.378Z,4.22
2018-01-20T08:41:16.932Z,9.10
2018-01-20T08:43:44.548Z,5.40
2018-01-20T08:46:12.132Z,3.40
2018-01-20T08:48:39.893Z,4.55
2018-01-20T08:51:07.448Z,7.80
2018-01-20T08:53:35.010Z,6.95
2018-01-20T08:56:02.563Z,8.52
2018-01-20T08:58:30.154Z,6.60
2018-01-20T09:00:57.709Z,6.72
2018-01-20T09:03:25.259Z,7.00
2018-01-20T09:05:52.796Z,6.75
2018-01-20T09:08:20.354Z,4.07
2018-01-20T09:10:47.920Z,5.95
2018-01-20T09:13:15.468Z,5.97
2018-01-20T09:15:43.805Z,8.57
2018-01-20T09:18:11.437Z,5.62
2018-01-20T09:20:39.022Z,9.18
2018-01-20T09:23:06.589Z,4.47
2018-01-20T09:25:34.138Z,5.55
2018-01-20T09:28:01.991Z,7.30
2018-01-20T09:30:29.546Z,7.20
2018-01-20T09:32:57.106Z,7.68
2018-01-20T09:35:24.672Z,5.60
2018-01-20T09:37:52.254Z,6.65
2018-01-20T09:40:19.886Z,5.53
2018-01-20T09:42:47.472Z,6.90
2018-01-20T09:45:15.093Z,8.02
2018-01-20T09:47:43.441Z,6.47
2018-01-20T09:50:10.992Z,5.30
2018-01-20T09:52:38.551Z,8.05
2018-01-20T09:55:06.102Z,5.20
2018-01-20T09:57:33.678Z,7.37
2018-01-20T10:00:01.247Z,5.10
2018-01-20T10:02:28.788Z,5.03
2018-01-20T10:04:56.342Z,7.93
2018-01-20T10:07:23.945Z,5.82
2018-01-20T10:09:51.524Z,10.48
2018-01-20T10:12:19.849Z,9.57
2018-01-20T10:14:48.454Z,21.15
2018-01-20T10:17:16.131Z,11.18
2018-01-20T10:19:43.708Z,5.00
2018-01-20T10:22:11.268Z,5.60
2018-01-20T10:24:39.618Z,5.78
2018-01-20T10:27:07.190Z,9.15
2018-01-20T10:29:35.587Z,5.22
2018-01-20T10:32:03.242Z,5.40
2018-01-20T10:34:30.813Z,8.20
2018-01-20T10:36:59.138Z,6.15
2018-01-20T10:39:26.751Z,5.00
2018-01-20T10:41:54.472Z,6.00
2018-01-20T10:44:22.009Z,5.50
2018-01-20T10:46:49.570Z,10.00
2018-01-20T10:49:17.127Z,5.45
2018-01-20T10:51:45.468Z,10.00
2018-01-20T10:54:13.037Z,10.13
2018-01-20T10:56:40.601Z,5.37
2018-01-20T10:59:08.182Z,10.80
2018-01-20T11:01:35.878Z,5.28
2018-01-20T11:04:03.446Z,7.35
2018-01-20T11:06:31.014Z,6.50
2018-01-20T11:08:58.562Z,7.90
2018-01-20T11:11:26.957Z,4.72
2018-01-20T11:13:54.515Z,6.97
2018-01-20T11:16:22.124Z,5.72
2018-01-20T11:18:49.681Z,4.93
2018-01-20T11:21:17.230Z,7.03
2018-01-20T11:23:44.794Z,5.80
2018-01-20T11:26:12.473Z,7.65
2018-01-20T11:28:40.853Z,5.07
2018-01-20T11:31:08.424Z,8.85
2018-01-20T11:33:36.746Z,4.75
2018-01-20T11:36:04.457Z,4.80
2018-01-20T11:38:32.060Z,5.90
2018-01-20T11:40:59.593Z,5.82
2018-01-20T11:43:27.925Z,4.15
2018-01-20T11:45:55.470Z,6.20
2018-01-20T11:48:23.047Z,8.23
2018-01-20T11:50:50.588Z,9.52
2018-01-20T11:53:18.318Z,16.27
2018-01-20T11:55:46.641Z,8.55
2018-01-20T11:58:14.715Z,7.07
2018-01-20T12:00:42.282Z,7.12
2018-01-20T12:03:10.057Z,9.75
2018-01-20T12:05:37.613Z,7.93
2018-01-20T12:08:05.171Z,5.90
2018-01-20T12:10:32.746Z,6.15
2018-01-20T12:13:00.313Z,7.03
2018-01-20T12:15:27.916Z,6.30
2018-01-20T12:17:56.250Z,6.10
2018-01-20T12:20:23.796Z,6.85
2018-01-20T12:22:51.369Z,6.50
2018-01-20T12:25:18.915Z,8.38
2018-01-20T12:27:46.503Z,14.82
2018-01-20T12:30:14.049Z,8.48
2018-01-20T12:32:41.609Z,6.62
2018-01-20T12:35:09.154Z,9.15
2018-01-20T12:37:36.753Z,6.03
2018-01-20T12:40:04.313Z,10.43
2018-01-20T12:42:31.868Z,6.10
2018-01-20T12:44:59.473Z,5.10
2018-01-20T12:47:27.832Z,7.37
2018-01-20T12:49:55.396Z,6.05
2018-01-20T12:52:22.965Z,5.32
2018-01-20T12:54:50.523Z,7.25
2018-01-20T12:57:18.077Z,4.70
2018-01-20T12:59:45.648Z,5.25
2018-01-20T13:02:13.206Z,9.50
2018-01-20T13:04:41.839Z,5.47
2018-01-20T13:07:09.388Z,4.82
2018-01-20T13:09:37.021Z,5.28
2018-01-20T13:12:04.575Z,5.50
2018-01-20T13:14:32.186Z,5.05
2018-01-20T13:16:59.834Z,3.00
2018-01-20T13:19:28.144Z,3.05
2018-01-20T13:21:55.695Z,3.40
2018-01-20T13:24:23.245Z,2.42
2018-01-20T13:26:50.805Z,3.15
2018-01-20T13:29:18.483Z,3.65
2018-01-20T13:31:46.102Z,2.87
2018-01-20T13:34:14.456Z,2.53
2018-01-20T13:36:42.025Z,2.60
2018-01-20T13:39:09.613Z,2.67
2018-01-20T13:41:37.928Z,3.70
2018-01-20T13:44:05.482Z,4.95
2018-01-20T13:46:33.034Z,2.37
2018-01-20T13:49:00.617Z,2.30
2018-01-20T13:51:28.157Z,3.22
2018-01-20T13:53:55.934Z,2.45
2018-01-20T13:56:23.477Z,1.75
2018-01-20T13:58:51.031Z,1.55
2018-01-20T14:01:19.348Z,1.90
2018-01-20T14:03:46.901Z,3.37
2018-01-20T14:06:14.454Z,1.75
2018-01-20T14:08:42.121Z,1.20
2018-01-20T14:11:09.734Z,3.20
2018-01-20T14:13:37.301Z,2.58
2018-01-20T14:16:04.859Z,2.15
2018-01-20T14:18:33.195Z,2.70
2018-01-20T14:21:00.771Z,3.67
2018-01-20T14:23:28.341Z,4.47
2018-01-20T14:25:55.908Z,3.15
2018-01-20T14:28:23.566Z,2.62
2018-01-20T14:30:51.173Z,2.50
2018-01-20T14:33:19.481Z,2.70
2018-01-20T14:35:47.077Z,1.92
2018-01-20T14:38:14.621Z,3.55
2018-01-20T14:40:42.204Z,5.40
2018-01-20T14:43:09.742Z,3.25
2018-01-20T14:45:37.397Z,5.30
2018-01-20T14:48:04.963Z,2.85
2018-01-20T14:50:32.522Z,2.30
2018-01-20T14:53:00.190Z,2.97
2018-01-20T14:55:27.738Z,3.12
2018-01-20T14:57:55.294Z,4.30
2018-01-20T15:00:22.870Z,6.15
2018-01-20T15:02:50.418Z,5.87
2018-01-20T15:05:17.995Z,5.12
2018-01-20T15:07:45.635Z,5.03
2018-01-20T15:10:13.975Z,4.43
2018-01-20T15:12:41.532Z,4.25
2018-01-20T15:15:09.862Z,3.85
2018-01-20T15:17:37.409Z,2.20
2018-01-20T15:20:05.863Z,4.85
2018-01-20T15:22:34.219Z,4.03
2018-01-20T15:25:01.790Z,2.85
2018-01-20T15:27:29.334Z,4.95
2018-01-20T15:29:56.871Z,2.95
2018-01-20T15:32:24.434Z,2.90
2018-01-20T15:34:52.005Z,2.45
2018-01-20T15:37:19.549Z,5.75
2018-01-20T15:39:47.133Z,5.80
2018-01-20T15:42:14.710Z,5.93
2018-01-20T15:44:42.250Z,5.78
2018-01-20T15:47:09.845Z,4.35
2018-01-20T15:49:37.393Z,6.20
2018-01-20T15:52:04.969Z,6.75
2018-01-20T15:54:32.533Z,3.85
2018-01-20T15:57:00.120Z,4.93
2018-01-20T15:59:28.445Z,4.28
2018-01-20T16:01:56.111Z,4.32
2018-01-20T16:04:23.705Z,4.05
2018-01-20T16:06:52.153Z,4.78
2018-01-20T16:09:19.711Z,4.45
2018-01-20T16:11:47.259Z,6.45
2018-01-20T16:14:14.865Z,4.03
2018-01-20T16:16:42.429Z,4.70
2018-01-20T16:19:10.013Z,5.37
2018-01-20T16:21:38.385Z,5.55
2018-01-20T16:24:06.757Z,5.65
2018-01-20T16:26:34.321Z,5.07
2018-01-20T16:29:02.638Z,4.25
2018-01-20T16:31:30.254Z,6.00
2018-01-20T16:33:57.824Z,5.15
2018-01-20T16:36:26.196Z,5.32
2018-01-20T16:38:53.736Z,6.00
2018-01-20T16:41:21.356Z,5.95
2018-01-20T16:43:49.751Z,5.25
2018-01-20T16:46:17.300Z,6.80
2018-01-20T16:48:45.039Z,5.95
2018-01-20T16:51:13.374Z,6.47
2018-01-20T16:53:40.949Z,7.07
2018-01-20T16:56:08.513Z,7.37
2018-01-20T16:58:36.057Z,6.75
2018-01-20T17:01:03.646Z,12.68
2018-01-20T17:03:31.237Z,7.70
2018-01-20T17:05:59.551Z,7.25
2018-01-20T17:08:27.135Z,7.65
2018-01-20T17:10:54.706Z,8.73
2018-01-20T17:13:22.278Z,8.20
2018-01-20T17:15:50.194Z,6.07
2018-01-20T17:18:17.792Z,11.20
2018-01-20T17:20:45.365Z,9.98
2018-01-20T17:23:12.968Z,12.15
2018-01-20T17:25:40.518Z,10.73
2018-01-20T17:28:09.946Z,10.25
2018-01-20T17:30:37.796Z,12.95
2018-01-20T17:33:06.190Z,12.23
2018-01-20T17:35:33.762Z,12.15
2018-01-20T17:38:01.346Z,9.45
2018-01-20T17:40:28.913Z,9.80
2018-01-20T17:42:56.582Z,14.98
2018-01-20T17:45:24.256Z,11.93
2018-01-20T17:47:51.830Z,9.90
2018-01-20T17:50:20.569Z,11.75
2018-01-20T17:52:48.133Z,10.20
2018-01-20T17:55:15.810Z,11.00
2018-01-20T17:57:43.390Z,15.35
2018-01-20T18:00:10.969Z,10.35
2018-01-20T18:02:38.522Z,9.55
2018-01-20T18:05:06.855Z,6.70
2018-01-20T18:07:34.418Z,12.15
2018-01-20T18:10:02.018Z,8.88
2018-01-20T18:12:29.604Z,10.40
2018-01-20T18:14:58.106Z,11.00
2018-01-20T18:17:25.654Z,9.73
2018-01-20T18:19:54.016Z,11.60
2018-01-20T18:22:21.601Z,12.55
2018-01-20T18:24:49.957Z,9.15
2018-01-20T18:27:18.327Z,11.48
2018-01-20T18:29:45.877Z,12.00
2018-01-20T18:32:14.282Z,10.00
2018-01-20T18:34:42.652Z,10.80
2018-01-20T18:37:10.362Z,10.85
2018-01-20T18:39:37.926Z,13.45
2018-01-20T18:42:05.503Z,11.25
2018-01-20T18:44:33.057Z,9.52
2018-01-20T18:47:00.687Z,13.00
2018-01-20T18:49:29.218Z,11.80
2018-01-20T18:51:56.875Z,11.30
2018-01-20T18:54:24.464Z,10.38
2018-01-20T18:56:52.109Z,15.65
2018-01-20T18:59:20.594Z,16.42
2018-01-20T19:01:48.186Z,21.58
2018-01-20T19:04:15.783Z,13.93
2018-01-20T19:06:43.765Z,21.58
2018-01-20T19:09:11.330Z,29.08
2018-01-20T19:11:38.936Z,21.30
2018-01-20T19:14:06.533Z,22.58
2018-01-20T19:16:34.130Z,14.23
2018-01-20T19:19:01.700Z,14.45
2018-01-20T19:21:29.264Z,10.60
2018-01-20T19:23:56.803Z,11.68
2018-01-20T19:26:24.365Z,10.70
2018-01-20T19:28:51.937Z,10.13
2018-01-20T19:31:19.529Z,9.52
2018-01-20T19:33:48.103Z,11.07
2018-01-20T19:36:15.952Z,9.60
2018-01-20T19:38:43.953Z,10.02
2018-01-20T19:41:11.479Z,17.05
2018-01-20T19:43:39.053Z,14.07
2018-01-20T19:46:06.649Z,12.20
2018-01-20T19:48:34.226Z,11.12
2018-01-20T19:51:02.583Z,15.32
2018-01-20T19:53:30.144Z,13.60
2018-01-20T19:55:57.739Z,15.35
2018-01-20T19:58:26.157Z,10.88
2018-01-20T20:00:53.713Z,11.35
2018-01-20T20:03:21.288Z,10.25
2018-01-20T20:05:48.878Z,11.18
2018-01-20T20:08:16.459Z,12.05
2018-01-20T20:10:44.797Z,15.00
2018-01-20T20:13:12.366Z,14.32
2018-01-20T20:15:40.296Z,15.93
2018-01-20T20:18:07.858Z,15.38
2018-01-20T20:20:35.501Z,14.75
2018-01-20T20:23:03.080Z,12.37
2018-01-20T20:25:30.669Z,14.57
2018-01-20T20:27:58.229Z,13.15
2018-01-20T20:30:25.831Z,18.67
2018-01-20T20:32:53.574Z,28.55
2018-01-20T20:35:21.129Z,24.30
2018-01-20T20:37:48.729Z,19.25
2018-01-20T20:40:17.048Z,16.15
2018-01-20T20:42:44.646Z,14.85
2018-01-20T20:45:12.198Z,15.85
2018-01-20T20:47:44.227Z,13.13
2018-01-20T20:50:11.792Z,18.20
2018-01-20T20:52:39.365Z,20.00
2018-01-20T20:55:06.953Z,21.50
2018-01-20T20:57:35.427Z,27.10
2018-01-20T21:00:02.985Z,30.60
2018-01-20T21:02:30.565Z,20.42
2018-01-20T21:04:58.146Z,20.83
2018-01-20T21:07:26.508Z,18.80
2018-01-20T21:09:54.078Z,19.12
2018-01-20T21:12:21.839Z,25.90
2018-01-20T21:14:49.398Z,24.83
2018-01-20T21:17:16.967Z,23.90
2018-01-20T21:19:45.292Z,23.70
2018-01-20T21:22:12.855Z,25.80
2018-01-20T21:24:40.470Z,24.08
2018-01-20T21:27:08.853Z,29.08
2018-01-20T21:29:37.218Z,22.37
2018-01-20T21:32:04.777Z,23.30
2018-01-20T21:34:32.337Z,24.37
2018-01-20T21:36:59.940Z,27.60
2018-01-20T21:39:27.511Z,35.15
2018-01-20T21:41:55.082Z,28.55
2018-01-20T21:44:22.641Z,26.12
2018-01-20T21:46:50.220Z,26.58
2018-01-20T21:49:17.809Z,30.40
2018-01-20T21:51:46.141Z,32.20
2018-01-20T21:54:13.772Z,31.52
2018-01-20T21:56:42.082Z,31.02
2018-01-20T21:59:09.682Z,30.98
2018-01-20T22:01:37.275Z,37.03
2018-01-20T22:04:04.905Z,35.28
2018-01-20T22:06:32.626Z,32.53
2018-01-20T22:09:00.221Z,33.45
2018-01-20T22:11:27.758Z,32.72
2018-01-20T22:13:55.325Z,28.60
2018-01-20T22:16:23.539Z,31.80
2018-01-20T22:18:51.164Z,35.45
2018-01-20T22:21:18.722Z,31.87
2018-01-20T22:23:46.265Z,35.00
2018-01-20T22:26:13.811Z,40.40
2018-01-20T22:28:41.659Z,37.63
2018-01-20T22:31:09.481Z,34.53
2018-01-20T22:33:37.182Z,37.30
2018-01-20T22:36:05.661Z,39.00
2018-01-20T22:38:33.440Z,33.13
2018-01-20T22:41:02.047Z,39.90
2018-01-20T22:43:30.620Z,48.25
2018-01-20T22:45:58.255Z,38.60
2018-01-20T22:48:26.074Z,45.58
2018-01-20T22:50:54.558Z,40.53
2018-01-20T22:53:22.342Z,40.53
2018-01-20T22:55:50.253Z,38.70
2018-01-20T22:58:18.091Z,43.85
2018-01-20T23:00:45.767Z,42.70
2018-01-20T23:03:13.499Z,40.70
2018-01-20T23:05:41.137Z,40.75
2018-01-20T23:08:08.834Z,36.95
2018-01-20T23:10:36.470Z,36.58
2018-01-20T23:13:04.073Z,38.78
2018-01-20T23:15:32.709Z,43.05
2018-01-20T23:18:00.312Z,38.67
2018-01-20T23:20:27.894Z,36.45
2018-01-20T23:22:55.448Z,40.38
2018-01-20T23:25:23.009Z,36.35
2018-01-20T23:27:50.769Z,38.10
2018-01-20T23:30:18.320Z,39.20
2018-01-20T23:32:45.876Z,34.63
2018-01-20T23:35:13.453Z,37.72
2018-01-20T23:37:41.180Z,43.97
2018-01-20T23:40:09.621Z,39.33
2018-01-20T23:42:37.189Z,48.92
2018-01-20T23:45:04.747Z,46.25
2018-01-20T23:47:32.322Z,49.97
2018-01-20T23:50:00.650Z,47.78
2018-01-20T23:52:28.349Z,52.72
2018-01-20T23:54:55.913Z,51.97
2018-01-20T23:57:23.466Z,63.10
2018-01-20T23:59:51.018Z,51.10
